createdAt,value
2018-09-05T00:01:14.939Z,99.90
2018-09-05T00:03:42.067Z,99.90
2018-09-05T00:06:09.190Z,99.90
2018-09-05T00:08:36.345Z,99.90
2018-09-05T00:11:03.517Z,99.90
2018-09-05T00:13:30.659Z,99.90
2018-09-05T00:15:57.810Z,99.90
2018-09-05T00:18:24.963Z,99.90
2018-09-05T00:21:19.197Z,99.90
2018-09-05T00:23:46.393Z,99.90
2018-09-05T00:26:13.562Z,99.90
2018-09-05T00:28:40.699Z,99.90
2018-09-05T00:31:09.854Z,99.90
2018-09-05T00:33:37.114Z,99.90
2018-09-05T00:36:04.368Z,99.90
2018-09-05T00:38:31.624Z,99.90
2018-09-05T00:40:58.742Z,99.90
2018-09-05T00:43:25.992Z,99.90
2018-09-05T00:45:53.123Z,99.90
2018-09-05T00:48:20.258Z,99.90
2018-09-05T00:50:47.385Z,99.90
2018-09-05T00:53:14.517Z,99.90
2018-09-05T00:55:41.651Z,99.90
2018-09-05T00:58:08.773Z,99.90
2018-09-05T01:00:35.978Z,99.90
2018-09-05T01:03:03.100Z,99.90
2018-09-05T01:05:30.214Z,99.90
2018-09-05T01:07:57.364Z,99.90
2018-09-05T01:10:24.591Z,99.90
2018-09-05T01:12:51.740Z,99.90
2018-09-05T01:15:18.853Z,99.90
2018-09-05T01:17:45.961Z,99.90
2018-09-05T01:20:13.101Z,99.90
2018-09-05T01:22:40.237Z,99.90
2018-09-05T01:25:07.379Z,99.90
2018-09-05T01:27:34.555Z,99.90
2018-09-05T01:30:01.740Z,99.90
2018-09-05T01:32:28.803Z,99.90
2018-09-05T01:34:55.933Z,99.90
2018-09-05T01:37:23.074Z,99.90
2018-09-05T01:39:50.254Z,99.90
2018-09-05T01:42:17.365Z,99.90
2018-09-05T01:44:44.518Z,99.90
2018-09-05T01:47:11.651Z,99.90
2018-09-05T01:49:38.777Z,99.90
2018-09-05T01:52:05.887Z,99.90
2018-09-05T01:54:32.986Z,99.90
2018-09-05T01:57:00.094Z,99.90
2018-09-05T01:59:27.226Z,99.90
2018-09-05T02:01:54.383Z,99.90
2018-09-05T02:04:21.531Z,99.90
2018-09-05T02:06:48.742Z,99.90
2018-09-05T02:09:15.853Z,99.90
2018-09-05T02:11:43.312Z,99.90
2018-09-05T02:14:11.106Z,99.90
2018-09-05T02:16:38.471Z,99.90
2018-09-05T02:19:05.616Z,99.90
2018-09-05T02:21:33.003Z,99.90
2018-09-05T02:24:00.477Z,99.90
2018-09-05T02:26:27.591Z,99.90
2018-09-05T02:28:54.690Z,99.90
2018-09-05T02:31:21.814Z,99.90
2018-09-05T02:33:48.965Z,99.90
2018-09-05T02:36:16.279Z,99.90
2018-09-05T02:38:43.763Z,99.90
2018-09-05T02:41:10.912Z,99.90
2018-09-05T02:43:43.787Z,99.90
2018-09-05T02:46:10.918Z,99.90
2018-09-05T02:48:38.091Z,99.90
2018-09-05T02:51:05.198Z,99.90
2018-09-05T02:53:32.306Z,99.90
2018-09-05T02:56:01.919Z,99.90
2018-09-05T02:58:29.848Z,99.90
2018-09-05T03:00:57.114Z,99.90
2018-09-05T03:03:24.315Z,99.90
2018-09-05T03:05:51.440Z,99.90
2018-09-05T03:08:18.595Z,99.90
2018-09-05T03:10:45.763Z,99.90
2018-09-05T03:13:12.968Z,99.90
2018-09-05T03:15:40.131Z,99.90
2018-09-05T03:18:07.250Z,99.90
2018-09-05T03:20:34.355Z,99.90
2018-09-05T03:23:01.518Z,99.90
2018-09-05T03:25:28.695Z,99.90
2018-09-05T03:27:55.812Z,99.90
2018-09-05T03:30:22.930Z,99.90
2018-09-05T03:32:50.169Z,99.90
2018-09-05T03:35:17.292Z,99.90
2018-09-05T03:37:44.467Z,99.90
2018-09-05T03:40:11.641Z,99.90
2018-09-05T03:42:38.801Z,99.90
2018-09-05T03:45:06.050Z,99.90
2018-09-05T03:47:33.150Z,99.90
2018-09-05T03:50:00.253Z,99.90
2018-09-05T03:52:27.437Z,99.90
2018-09-05T03:54:54.535Z,99.90
2018-09-05T03:57:21.659Z,99.90
2018-09-05T03:59:48.814Z,99.90
2018-09-05T04:02:15.998Z,99.90
2018-09-05T04:04:43.258Z,99.90
2018-09-05T04:07:10.379Z,99.90
2018-09-05T04:09:37.483Z,99.90
2018-09-05T04:12:04.729Z,99.90
2018-09-05T04:14:31.831Z,99.90
2018-09-05T04:16:58.935Z,99.90
2018-09-05T04:19:26.128Z,99.90
2018-09-05T04:21:53.242Z,99.90
2018-09-05T04:24:20.366Z,99.90
2018-09-05T04:26:47.475Z,99.90
2018-09-05T04:29:14.662Z,99.90
2018-09-05T04:31:41.813Z,99.90
2018-09-05T04:34:08.925Z,99.90
2018-09-05T04:36:36.022Z,99.90
2018-09-05T04:39:05.308Z,99.90
2018-09-05T04:41:32.419Z,99.90
2018-09-05T04:43:59.541Z,99.90
2018-09-05T04:46:26.665Z,99.90
2018-09-05T04:48:53.835Z,99.90
2018-09-05T04:51:20.954Z,99.90
2018-09-05T04:53:48.147Z,99.90
2018-09-05T04:56:15.367Z,99.90
2018-09-05T04:58:42.564Z,99.90
2018-09-05T05:01:09.701Z,99.90
2018-09-05T05:03:36.842Z,99.90
2018-09-05T05:06:04.257Z,99.90
2018-09-05T05:08:31.261Z,99.90
2018-09-05T05:10:58.380Z,99.90
2018-09-05T05:13:25.508Z,99.90
2018-09-05T05:15:52.620Z,99.90
2018-09-05T05:18:19.726Z,99.90
2018-09-05T05:20:53.227Z,99.90
2018-09-05T05:23:20.375Z,99.90
2018-09-05T05:25:47.548Z,99.90
2018-09-05T05:28:14.957Z,99.90
2018-09-05T05:30:42.082Z,99.90
2018-09-05T05:33:09.183Z,99.90
2018-09-05T05:35:36.293Z,99.90
2018-09-05T05:38:03.442Z,99.90
2018-09-05T05:40:30.585Z,99.90
2018-09-05T05:42:57.705Z,99.90
2018-09-05T05:45:24.839Z,99.90
2018-09-05T05:47:51.967Z,99.90
2018-09-05T05:50:19.137Z,99.90
2018-09-05T05:52:46.287Z,99.90
2018-09-05T05:55:13.516Z,99.90
2018-09-05T05:57:40.595Z,99.90
2018-09-05T06:00:07.806Z,99.90
2018-09-05T06:02:34.951Z,99.90
2018-09-05T06:05:02.098Z,99.90
2018-09-05T06:07:29.209Z,98.80
2018-09-05T06:09:56.336Z,98.90
2018-09-05T06:12:23.444Z,99.90
2018-09-05T06:14:50.568Z,99.90
2018-09-05T06:17:17.752Z,99.90
2018-09-05T06:19:44.951Z,99.90
2018-09-05T06:22:12.087Z,99.90
2018-09-05T06:24:39.295Z,99.90
2018-09-05T06:27:06.388Z,99.90
2018-09-05T06:29:33.514Z,98.70
2018-09-05T06:32:00.622Z,93.10
2018-09-05T06:34:27.763Z,80.60
2018-09-05T06:36:54.916Z,70.50
2018-09-05T06:39:22.022Z,65.40
2018-09-05T06:41:49.134Z,60.50
2018-09-05T06:44:16.321Z,59.00
2018-09-05T06:46:43.504Z,56.50
2018-09-05T06:49:10.659Z,53.60
2018-09-05T06:51:37.780Z,51.70
2018-09-05T06:54:04.927Z,51.80
2018-09-05T06:56:32.127Z,51.00
2018-09-05T06:58:59.270Z,49.60
2018-09-05T07:01:26.400Z,46.90
2018-09-05T07:03:53.529Z,45.60
2018-09-05T07:06:20.627Z,45.40
2018-09-05T07:08:47.882Z,45.00
2018-09-05T07:11:14.959Z,43.80
2018-09-05T07:13:42.104Z,43.40
2018-09-05T07:16:09.241Z,42.90
2018-09-05T07:18:36.410Z,41.70
2018-09-05T07:21:06.655Z,40.90
2018-09-05T07:23:30.661Z,40.90
2018-09-05T07:25:57.776Z,40.20
2018-09-05T07:28:24.883Z,39.70
2018-09-05T07:30:52.007Z,38.90
2018-09-05T07:33:19.108Z,38.80
2018-09-05T07:35:46.359Z,38.60
2018-09-05T07:38:13.559Z,38.70
2018-09-05T07:40:40.733Z,37.70
2018-09-05T07:43:07.845Z,37.40
2018-09-05T07:45:35.006Z,36.60
2018-09-05T07:48:02.411Z,36.40
2018-09-05T07:50:29.540Z,36.10
2018-09-05T07:52:56.652Z,36.60
2018-09-05T07:55:23.759Z,35.90
2018-09-05T07:57:50.903Z,36.30
2018-09-05T08:00:18.088Z,35.40
2018-09-05T08:02:45.259Z,35.60
2018-09-05T08:05:12.405Z,35.30
2018-09-05T08:07:39.517Z,35.00
2018-09-05T08:10:06.675Z,35.00
2018-09-05T08:12:33.797Z,34.50
2018-09-05T08:15:00.923Z,34.60
2018-09-05T08:17:28.043Z,34.00
2018-09-05T08:19:55.170Z,34.30
2018-09-05T08:22:22.292Z,34.30
2018-09-05T08:24:49.938Z,35.30
2018-09-05T08:27:20.510Z,36.40
2018-09-05T08:29:47.717Z,37.30
2018-09-05T08:32:14.892Z,36.10
2018-09-05T08:34:42.088Z,36.30
2018-09-05T08:37:09.444Z,36.60
2018-09-05T08:39:36.299Z,36.70
2018-09-05T08:42:03.537Z,39.60
2018-09-05T08:44:30.659Z,38.90
2018-09-05T08:46:57.806Z,38.30
2018-09-05T08:49:24.844Z,39.40
2018-09-05T08:51:51.983Z,39.30
2018-09-05T08:54:19.117Z,38.50
2018-09-05T08:56:46.263Z,38.10
2018-09-05T08:59:13.475Z,38.20
2018-09-05T09:01:40.627Z,39.10
2018-09-05T09:04:07.730Z,40.40
2018-09-05T09:06:34.839Z,40.80
2018-09-05T09:09:02.116Z,42.70
2018-09-05T09:11:29.284Z,43.60
2018-09-05T09:13:56.426Z,44.30
2018-09-05T09:16:23.554Z,45.30
2018-09-05T09:18:50.717Z,47.60
2018-09-05T09:21:17.954Z,48.40
2018-09-05T09:23:45.156Z,48.90
2018-09-05T09:26:12.331Z,48.70
2018-09-05T09:28:39.453Z,49.90
2018-09-05T09:31:06.787Z,51.00
2018-09-05T09:33:33.975Z,51.30
2018-09-05T09:36:01.136Z,51.80
2018-09-05T09:38:28.285Z,52.40
2018-09-05T09:40:55.426Z,53.00
2018-09-05T09:43:22.526Z,52.90
2018-09-05T09:45:49.643Z,52.90
2018-09-05T09:48:16.814Z,52.90
2018-09-05T09:50:44.247Z,52.90
2018-09-05T09:53:11.443Z,53.80
2018-09-05T09:55:38.534Z,54.30
2018-09-05T09:58:05.656Z,53.50
2018-09-05T10:00:38.623Z,53.30
2018-09-05T10:03:11.586Z,53.20
2018-09-05T10:05:44.465Z,53.60
2018-09-05T10:08:17.480Z,53.20
2018-09-05T10:10:50.530Z,53.20
2018-09-05T10:13:23.456Z,52.70
2018-09-05T10:15:56.303Z,52.40
2018-09-05T10:18:25.375Z,52.60
2018-09-05T10:20:52.561Z,52.50
2018-09-05T10:23:19.672Z,52.50
2018-09-05T10:25:46.843Z,52.70
2018-09-05T10:28:14.097Z,53.20
2018-09-05T10:30:41.254Z,53.00
2018-09-05T10:33:08.432Z,52.50
2018-09-05T10:35:35.551Z,52.20
2018-09-05T10:38:02.743Z,52.10
2018-09-05T10:40:29.811Z,51.60
2018-09-05T10:42:56.911Z,52.40
2018-09-05T10:45:24.016Z,51.80
2018-09-05T10:47:51.127Z,50.60
2018-09-05T10:50:18.511Z,50.40
2018-09-05T10:52:45.928Z,50.20
2018-09-05T10:55:13.054Z,51.50
2018-09-05T10:57:40.211Z,51.60
2018-09-05T11:00:07.351Z,51.70
2018-09-05T11:02:34.471Z,50.60
2018-09-05T11:05:01.669Z,50.10
2018-09-05T11:07:28.826Z,50.70
2018-09-05T11:09:55.961Z,50.00
2018-09-05T11:12:23.062Z,49.50
2018-09-05T11:14:50.179Z,48.90
2018-09-05T11:17:17.360Z,47.30
2018-09-05T11:19:44.547Z,47.20
2018-09-05T11:22:11.669Z,47.90
2018-09-05T11:24:38.814Z,48.30
2018-09-05T11:27:06.007Z,48.30
2018-09-05T11:29:33.129Z,46.00
2018-09-05T11:32:00.216Z,46.00
2018-09-05T11:34:27.331Z,44.30
2018-09-05T11:36:54.492Z,43.40
2018-09-05T11:39:21.548Z,43.10
2018-09-05T11:41:48.715Z,43.20
2018-09-05T11:44:16.003Z,44.70
2018-09-05T11:46:43.186Z,43.60
2018-09-05T11:49:10.313Z,43.20
2018-09-05T11:51:37.464Z,42.50
2018-09-05T11:54:05.254Z,43.10
2018-09-05T11:56:32.379Z,43.90
2018-09-05T11:58:59.499Z,44.30
2018-09-05T12:01:26.619Z,44.00
2018-09-05T12:03:53.783Z,42.40
2018-09-05T12:06:20.920Z,42.00
2018-09-05T12:08:48.130Z,42.30
2018-09-05T12:11:15.302Z,41.00
2018-09-05T12:13:42.444Z,41.50
2018-09-05T12:16:09.561Z,41.40
2018-09-05T12:18:36.682Z,41.10
2018-09-05T12:21:03.799Z,40.30
2018-09-05T12:23:30.923Z,39.40
2018-09-05T12:25:58.091Z,39.80
2018-09-05T12:28:25.238Z,39.70
2018-09-05T12:30:52.411Z,40.40
2018-09-05T12:33:19.558Z,40.80
2018-09-05T12:35:46.797Z,41.20
2018-09-05T12:38:14.101Z,40.80
2018-09-05T12:40:41.257Z,40.50
2018-09-05T12:43:08.379Z,40.90
2018-09-05T12:45:35.486Z,41.80
2018-09-05T12:48:02.590Z,41.50
2018-09-05T12:50:29.703Z,42.40
2018-09-05T12:52:56.830Z,42.60
2018-09-05T12:55:24.004Z,42.70
2018-09-05T12:57:51.111Z,42.60
2018-09-05T13:00:18.316Z,41.60
2018-09-05T13:02:45.589Z,41.20
2018-09-05T13:05:12.800Z,41.90
2018-09-05T13:07:39.912Z,42.50
2018-09-05T13:10:07.071Z,42.50
2018-09-05T13:12:34.367Z,42.80
2018-09-05T13:15:01.512Z,43.20
2018-09-05T13:17:28.619Z,42.30
2018-09-05T13:19:55.728Z,42.00
2018-09-05T13:22:22.847Z,42.30
2018-09-05T13:24:50.000Z,42.30
2018-09-05T13:27:17.256Z,42.10
2018-09-05T13:29:44.453Z,42.20
2018-09-05T13:32:11.636Z,42.20
2018-09-05T13:34:38.965Z,41.60
2018-09-05T13:37:06.151Z,42.10
2018-09-05T13:39:33.255Z,42.00
2018-09-05T13:42:00.371Z,41.40
2018-09-05T13:44:27.494Z,42.00
2018-09-05T13:46:54.615Z,41.90
2018-09-05T13:49:21.774Z,41.60
2018-09-05T13:51:54.626Z,41.40
2018-09-05T13:54:21.767Z,41.50
2018-09-05T13:56:49.175Z,42.00
2018-09-05T13:59:16.350Z,41.60
2018-09-05T14:01:43.694Z,41.50
2018-09-05T14:04:10.835Z,42.00
2018-09-05T14:06:37.957Z,41.90
2018-09-05T14:09:07.819Z,41.90
2018-09-05T14:11:34.930Z,42.20
2018-09-05T14:14:02.092Z,42.10
2018-09-05T14:16:29.214Z,42.20
2018-09-05T14:18:56.331Z,42.20
2018-09-05T14:21:23.455Z,42.00
2018-09-05T14:23:50.590Z,41.90
2018-09-05T14:26:17.747Z,41.50
2018-09-05T14:28:44.906Z,41.30
2018-09-05T14:31:12.066Z,41.90
2018-09-05T14:33:39.208Z,41.50
2018-09-05T14:36:06.407Z,41.50
2018-09-05T14:38:33.523Z,41.30
2018-09-05T14:41:00.668Z,41.60
2018-09-05T14:43:27.793Z,41.80
2018-09-05T14:45:54.898Z,42.00
2018-09-05T14:48:22.132Z,42.30
2018-09-05T14:50:49.259Z,42.20
2018-09-05T14:53:16.495Z,42.10
2018-09-05T14:55:43.649Z,42.20
2018-09-05T14:58:10.757Z,41.80
2018-09-05T15:00:37.877Z,41.90
2018-09-05T15:03:05.068Z,41.00
2018-09-05T15:05:32.183Z,41.30
2018-09-05T15:07:59.320Z,41.20
2018-09-05T15:10:26.469Z,41.20
2018-09-05T15:12:53.617Z,41.20
2018-09-05T15:15:20.864Z,42.00
2018-09-05T15:17:48.075Z,41.20
2018-09-05T15:20:15.234Z,41.50
2018-09-05T15:22:42.353Z,42.00
2018-09-05T15:25:09.734Z,41.90
2018-09-05T15:27:36.845Z,41.60
2018-09-05T15:30:04.531Z,41.40
2018-09-05T15:32:31.680Z,41.30
2018-09-05T15:34:58.825Z,41.20
2018-09-05T15:37:25.955Z,41.60
2018-09-05T15:39:53.077Z,41.30
2018-09-05T15:42:20.222Z,41.70
2018-09-05T15:44:47.487Z,41.80
2018-09-05T15:47:14.808Z,42.10
2018-09-05T15:49:42.479Z,42.20
2018-09-05T15:52:09.609Z,41.70
2018-09-05T15:54:36.742Z,42.00
2018-09-05T15:57:03.879Z,41.70
2018-09-05T15:59:31.006Z,42.00
2018-09-05T16:01:58.212Z,41.80
2018-09-05T16:04:25.688Z,41.40
2018-09-05T16:06:52.851Z,41.40
2018-09-05T16:09:20.018Z,41.60
2018-09-05T16:11:47.351Z,41.70
2018-09-05T16:14:14.703Z,41.20
2018-09-05T16:16:41.819Z,41.30
2018-09-05T16:19:08.935Z,41.50
2018-09-05T16:21:36.119Z,41.70
2018-09-05T16:24:03.312Z,41.70
2018-09-05T16:26:30.506Z,41.40
2018-09-05T16:28:57.813Z,41.60
2018-09-05T16:31:24.959Z,41.50
2018-09-05T16:33:52.090Z,41.90
2018-09-05T16:36:19.288Z,41.80
2018-09-05T16:38:47.554Z,41.70
2018-09-05T16:41:14.754Z,42.20
2018-09-05T16:43:41.954Z,42.00
2018-09-05T16:46:09.088Z,42.20
2018-09-05T16:48:36.301Z,42.70
2018-09-05T16:51:03.387Z,42.10
2018-09-05T16:53:30.531Z,42.20
2018-09-05T16:55:57.630Z,42.30
2018-09-05T16:58:24.762Z,42.20
2018-09-05T17:00:51.876Z,42.50
2018-09-05T17:03:20.628Z,42.60
2018-09-05T17:05:48.414Z,42.60
2018-09-05T17:08:15.673Z,42.70
2018-09-05T17:10:42.831Z,42.80
2018-09-05T17:13:09.950Z,43.10
2018-09-05T17:15:37.108Z,42.90
2018-09-05T17:18:04.536Z,43.10
2018-09-05T17:20:31.639Z,43.40
2018-09-05T17:22:58.782Z,43.90
2018-09-05T17:25:25.900Z,44.90
2018-09-05T17:27:53.038Z,46.60
2018-09-05T17:30:20.376Z,47.30
2018-09-05T17:32:47.583Z,47.90
2018-09-05T17:35:14.876Z,48.10
2018-09-05T17:37:42.053Z,48.70
2018-09-05T17:40:09.198Z,49.30
2018-09-05T17:42:36.285Z,49.60
2018-09-05T17:45:03.494Z,50.30
2018-09-05T17:47:30.661Z,50.50
2018-09-05T17:49:57.775Z,50.70
2018-09-05T17:52:24.986Z,50.80
2018-09-05T17:54:52.115Z,51.20
2018-09-05T17:57:19.310Z,51.80
2018-09-05T17:59:46.502Z,51.80
2018-09-05T18:02:13.740Z,52.70
2018-09-05T18:04:40.848Z,53.40
2018-09-05T18:07:07.985Z,53.90
2018-09-05T18:09:35.128Z,54.30
2018-09-05T18:12:02.319Z,55.10
2018-09-05T18:14:29.535Z,55.40
2018-09-05T18:16:56.650Z,55.90
2018-09-05T18:19:23.775Z,56.00
2018-09-05T18:21:50.929Z,56.40
2018-09-05T18:24:18.243Z,57.00
2018-09-05T18:26:45.468Z,57.90
2018-09-05T18:29:12.603Z,58.40
2018-09-05T18:31:39.736Z,59.20
2018-09-05T18:34:06.848Z,59.70
2018-09-05T18:36:34.021Z,60.20
2018-09-05T18:39:01.110Z,60.90
2018-09-05T18:41:28.239Z,61.40
2018-09-05T18:43:55.348Z,61.90
2018-09-05T18:46:22.475Z,62.50
2018-09-05T18:48:50.581Z,63.00
2018-09-05T18:51:17.746Z,63.60
2018-09-05T18:53:44.957Z,64.00
2018-09-05T18:56:12.099Z,64.00
2018-09-05T18:58:39.263Z,63.90
2018-09-05T19:01:06.397Z,63.80
2018-09-05T19:03:33.542Z,64.00
2018-09-05T19:06:00.684Z,64.10
2018-09-05T19:08:27.947Z,63.90
2018-09-05T19:10:54.965Z,63.90
2018-09-05T19:13:22.112Z,63.90
2018-09-05T19:15:49.311Z,63.30
2018-09-05T19:18:16.552Z,59.80
2018-09-05T19:20:43.724Z,62.00
2018-09-05T19:23:10.868Z,62.60
2018-09-05T19:25:38.094Z,62.50
2018-09-05T19:28:05.253Z,63.20
2018-09-05T19:30:32.396Z,63.30
2018-09-05T19:32:59.535Z,63.50
2018-09-05T19:35:26.707Z,63.70
2018-09-05T19:37:53.867Z,64.20
2018-09-05T19:40:21.003Z,64.10
2018-09-05T19:42:48.189Z,63.80
2018-09-05T19:45:15.374Z,63.30
2018-09-05T19:47:42.500Z,62.40
2018-09-05T19:50:09.682Z,62.30
2018-09-05T19:52:36.763Z,62.40
2018-09-05T19:55:04.006Z,62.80
2018-09-05T19:57:31.191Z,62.70
2018-09-05T19:59:58.353Z,62.80
2018-09-05T20:02:25.486Z,63.70
2018-09-05T20:04:52.794Z,63.80
2018-09-05T20:07:19.943Z,63.70
2018-09-05T20:09:47.327Z,63.30
2018-09-05T20:12:14.603Z,63.80
2018-09-05T20:14:41.772Z,64.50
2018-09-05T20:17:08.938Z,65.10
2018-09-05T20:19:36.287Z,65.40
2018-09-05T20:22:03.439Z,66.10
2018-09-05T20:24:30.588Z,65.30
2018-09-05T20:26:57.726Z,65.30
2018-09-05T20:29:24.834Z,65.20
2018-09-05T20:31:52.127Z,65.40
2018-09-05T20:34:19.287Z,65.80
2018-09-05T20:36:46.503Z,65.80
2018-09-05T20:39:14.586Z,66.20
2018-09-05T20:41:41.689Z,66.80
2018-09-05T20:44:09.026Z,66.30
2018-09-05T20:46:36.247Z,65.80
2018-09-05T20:49:03.420Z,66.00
2018-09-05T20:51:30.555Z,66.50
2018-09-05T20:53:57.884Z,66.80
2018-09-05T20:56:25.019Z,67.00
2018-09-05T20:58:52.284Z,66.60
2018-09-05T21:01:19.412Z,66.90
2018-09-05T21:03:46.575Z,67.20
2018-09-05T21:06:13.764Z,67.20
2018-09-05T21:08:40.977Z,67.40
2018-09-05T21:11:08.105Z,67.80
2018-09-05T21:13:35.343Z,67.20
2018-09-05T21:16:02.454Z,66.50
2018-09-05T21:18:30.800Z,66.60
2018-09-05T21:20:59.065Z,66.40
2018-09-05T21:23:27.618Z,67.00
2018-09-05T21:25:54.747Z,67.40
2018-09-05T21:28:21.882Z,67.30
2018-09-05T21:30:49.062Z,66.50
2018-09-05T21:33:16.253Z,66.90
2018-09-05T21:35:43.530Z,67.90
2018-09-05T21:38:10.659Z,66.90
2018-09-05T21:40:37.790Z,67.00
2018-09-05T21:43:05.165Z,66.90
2018-09-05T21:45:32.331Z,66.60
2018-09-05T21:47:59.455Z,66.80
2018-09-05T21:50:26.555Z,67.10
2018-09-05T21:52:53.675Z,67.50
2018-09-05T21:55:20.850Z,68.00
2018-09-05T21:57:48.026Z,65.90
2018-09-05T22:00:15.206Z,65.40
2018-09-05T22:02:42.329Z,64.80
2018-09-05T22:05:09.487Z,64.70
2018-09-05T22:07:36.644Z,64.40
2018-09-05T22:10:03.759Z,65.30
2018-09-05T22:12:30.863Z,66.30
2018-09-05T22:14:57.973Z,67.10
2018-09-05T22:17:25.179Z,68.40
2018-09-05T22:19:52.295Z,68.50
2018-09-05T22:22:19.448Z,68.30
2018-09-05T22:24:46.583Z,67.90
2018-09-05T22:27:13.813Z,67.90
2018-09-05T22:29:40.953Z,68.30
2018-09-05T22:32:08.203Z,68.70
2018-09-05T22:34:35.190Z,69.00
2018-09-05T22:37:02.354Z,69.20
2018-09-05T22:39:29.453Z,69.20
2018-09-05T22:41:56.576Z,69.10
2018-09-05T22:44:35.721Z,69.30
2018-09-05T22:48:19.312Z,69.70
2018-09-05T22:51:06.617Z,70.20
2018-09-05T22:53:54.029Z,71.90
2018-09-05T22:56:47.528Z,71.50
2018-09-05T22:59:25.501Z,71.30
2018-09-05T23:02:47.873Z,71.80
2018-09-05T23:07:30.179Z,71.80
2018-09-05T23:10:08.920Z,72.70
2018-09-05T23:12:47.576Z,74.10
2018-09-05T23:15:26.326Z,74.80
2018-09-05T23:18:10.844Z,75.10
2018-09-05T23:20:52.376Z,75.50
2018-09-05T23:23:31.109Z,75.50
2018-09-05T23:25:58.254Z,75.50
2018-09-05T23:28:25.507Z,76.00
2018-09-05T23:30:52.660Z,76.60
2018-09-05T23:33:19.763Z,76.60
2018-09-05T23:35:46.887Z,75.90
2018-09-05T23:38:14.023Z,75.50
2018-09-05T23:40:41.153Z,75.30
2018-09-05T23:43:08.292Z,75.50
2018-09-05T23:45:35.817Z,75.80
2018-09-05T23:48:03.288Z,76.30
2018-09-05T23:50:30.512Z,76.70
2018-09-05T23:52:57.685Z,77.30
2018-09-05T23:55:24.839Z,78.00
2018-09-05T23:57:51.948Z,77.90
